sensor_id;sensor_type;location;lat;lon;timestamp;P1;durP1;ratioP1;P2;durP2;ratioP2
6785;SDS011;3430;51.192;6.048;2023-07-13T00:01:17;4.43;;;2.00;;
6785;SDS011;3430;51.192;6.048;2023-07-13T00:03:42;1.83;;;1.63;;
6785;SDS011;3430;51.192;6.048;2023-07-13T00:06:08;3.90;;;1.60;;
6785;SDS011;3430;51.192;6.048;2023-07-13T00:08:34;2.07;;;1.50;;
6785;SDS011;3430;51.192;6.048;2023-07-13T00:11:00;4.47;;;1.90;;
6785;SDS011;3430;51.192;6.048;2023-07-13T00:13:26;1.80;;;1.50;;
6785;SDS011;3430;51.192;6.048;2023-07-13T00:15:52;2.00;;;1.57;;
6785;SDS011;3430;51.192;6.048;2023-07-13T00:18:19;1.67;;;1.40;;
6785;SDS011;3430;51.192;6.048;2023-07-13T00:20:44;5.17;;;1.37;;
6785;SDS011;3430;51.192;6.048;2023-07-13T00:23:10;2.27;;;1.47;;
6785;SDS011;3430;51.192;6.048;2023-07-13T00:25:35;1.77;;;1.30;;
6785;SDS011;3430;51.192;6.048;2023-07-13T00:28:01;2.73;;;1.47;;
6785;SDS011;3430;51.192;6.048;2023-07-13T00:30:28;10.10;;;2.70;;
6785;SDS011;3430;51.192;6.048;2023-07-13T00:32:53;1.80;;;1.30;;
6785;SDS011;3430;51.192;6.048;2023-07-13T00:35:20;1.53;;;1.43;;
6785;SDS011;3430;51.192;6.048;2023-07-13T00:37:45;5.20;;;1.57;;
6785;SDS011;3430;51.192;6.048;2023-07-13T00:40:11;1.70;;;1.60;;
6785;SDS011;3430;51.192;6.048;2023-07-13T00:42:37;2.43;;;1.60;;
6785;SDS011;3430;51.192;6.048;2023-07-13T00:45:04;1.80;;;1.40;;
6785;SDS011;3430;51.192;6.048;2023-07-13T00:47:29;3.00;;;1.43;;
6785;SDS011;3430;51.192;6.048;2023-07-13T00:49:55;2.50;;;1.73;;
6785;SDS011;3430;51.192;6.048;2023-07-13T00:52:20;1.50;;;1.20;;
6785;SDS011;3430;51.192;6.048;2023-07-13T00:54:46;1.87;;;1.40;;
6785;SDS011;3430;51.192;6.048;2023-07-13T00:57:14;1.83;;;1.37;;
6785;SDS011;3430;51.192;6.048;2023-07-13T00:59:41;1.47;;;1.30;;
6785;SDS011;3430;51.192;6.048;2023-07-13T01:02:07;1.80;;;1.47;;
6785;SDS011;3430;51.192;6.048;2023-07-13T01:04:33;2.93;;;1.40;;
6785;SDS011;3430;51.192;6.048;2023-07-13T01:06:58;1.47;;;1.30;;
6785;SDS011;3430;51.192;6.048;2023-07-13T01:09:25;4.20;;;1.53;;
6785;SDS011;3430;51.192;6.048;2023-07-13T01:11:51;2.87;;;1.60;;
6785;SDS011;3430;51.192;6.048;2023-07-13T01:14:16;4.10;;;1.80;;
6785;SDS011;3430;51.192;6.048;2023-07-13T01:16:42;1.93;;;1.23;;
6785;SDS011;3430;51.192;6.048;2023-07-13T01:19:12;3.07;;;1.47;;
6785;SDS011;3430;51.192;6.048;2023-07-13T01:21:41;1.60;;;1.50;;
6785;SDS011;3430;51.192;6.048;2023-07-13T01:24:08;1.70;;;1.50;;
6785;SDS011;3430;51.192;6.048;2023-07-13T01:26:34;3.97;;;1.67;;
6785;SDS011;3430;51.192;6.048;2023-07-13T01:28:59;1.67;;;1.40;;
6785;SDS011;3430;51.192;6.048;2023-07-13T01:31:25;1.43;;;1.33;;
6785;SDS011;3430;51.192;6.048;2023-07-13T01:33:51;1.80;;;1.50;;
6785;SDS011;3430;51.192;6.048;2023-07-13T01:36:17;3.27;;;1.60;;
6785;SDS011;3430;51.192;6.048;2023-07-13T01:38:42;2.60;;;1.40;;
6785;SDS011;3430;51.192;6.048;2023-07-13T01:41:07;1.73;;;1.20;;
6785;SDS011;3430;51.192;6.048;2023-07-13T01:43:33;1.50;;;1.40;;
6785;SDS011;3430;51.192;6.048;2023-07-13T01:45:59;1.80;;;1.40;;
6785;SDS011;3430;51.192;6.048;2023-07-13T01:48:24;1.70;;;1.40;;
6785;SDS011;3430;51.192;6.048;2023-07-13T01:50:50;1.67;;;1.40;;
6785;SDS011;3430;51.192;6.048;2023-07-13T01:53:16;1.20;;;1.17;;
6785;SDS011;3430;51.192;6.048;2023-07-13T01:55:41;2.67;;;1.60;;
6785;SDS011;3430;51.192;6.048;2023-07-13T02:00:41;1.50;;;1.40;;
6785;SDS011;3430;51.192;6.048;2023-07-13T02:03:07;2.00;;;1.50;;
6785;SDS011;3430;51.192;6.048;2023-07-13T02:05:32;3.20;;;1.70;;
6785;SDS011;3430;51.192;6.048;2023-07-13T02:07:58;2.50;;;1.50;;
6785;SDS011;3430;51.192;6.048;2023-07-13T02:10:26;2.57;;;1.80;;
6785;SDS011;3430;51.192;6.048;2023-07-13T02:12:53;1.77;;;1.37;;
6785;SDS011;3430;51.192;6.048;2023-07-13T02:15:19;3.60;;;1.50;;
6785;SDS011;3430;51.192;6.048;2023-07-13T02:17:44;2.87;;;1.70;;
6785;SDS011;3430;51.192;6.048;2023-07-13T02:20:10;2.37;;;1.30;;
6785;SDS011;3430;51.192;6.048;2023-07-13T02:22:36;2.10;;;1.50;;
6785;SDS011;3430;51.192;6.048;2023-07-13T02:25:02;1.87;;;1.40;;
6785;SDS011;3430;51.192;6.048;2023-07-13T02:27:27;2.43;;;1.57;;
6785;SDS011;3430;51.192;6.048;2023-07-13T02:29:53;3.03;;;1.57;;
6785;SDS011;3430;51.192;6.048;2023-07-13T02:32:18;2.97;;;1.70;;
6785;SDS011;3430;51.192;6.048;2023-07-13T02:34:44;3.37;;;1.80;;
6785;SDS011;3430;51.192;6.048;2023-07-13T02:37:10;1.43;;;1.27;;
6785;SDS011;3430;51.192;6.048;2023-07-13T02:39:36;2.60;;;1.70;;
6785;SDS011;3430;51.192;6.048;2023-07-13T02:42:01;1.83;;;1.40;;
6785;SDS011;3430;51.192;6.048;2023-07-13T02:44:28;2.43;;;1.50;;
6785;SDS011;3430;51.192;6.048;2023-07-13T02:46:54;3.73;;;1.53;;
6785;SDS011;3430;51.192;6.048;2023-07-13T02:49:20;2.30;;;1.23;;
6785;SDS011;3430;51.192;6.048;2023-07-13T02:51:45;2.67;;;1.80;;
6785;SDS011;3430;51.192;6.048;2023-07-13T02:54:11;3.97;;;1.83;;
6785;SDS011;3430;51.192;6.048;2023-07-13T02:56:38;3.37;;;1.87;;
6785;SDS011;3430;51.192;6.048;2023-07-13T02:59:04;1.97;;;1.57;;
6785;SDS011;3430;51.192;6.048;2023-07-13T03:01:30;3.53;;;1.47;;
6785;SDS011;3430;51.192;6.048;2023-07-13T03:03:59;1.50;;;1.27;;
6785;SDS011;3430;51.192;6.048;2023-07-13T03:06:25;3.60;;;1.77;;
6785;SDS011;3430;51.192;6.048;2023-07-13T03:08:50;1.47;;;1.37;;
6785;SDS011;3430;51.192;6.048;2023-07-13T03:11:17;2.07;;;1.40;;
6785;SDS011;3430;51.192;6.048;2023-07-13T03:13:43;3.03;;;1.60;;
6785;SDS011;3430;51.192;6.048;2023-07-13T03:16:09;3.07;;;1.47;;
6785;SDS011;3430;51.192;6.048;2023-07-13T03:18:36;2.07;;;1.50;;
6785;SDS011;3430;51.192;6.048;2023-07-13T03:21:02;1.70;;;1.50;;
6785;SDS011;3430;51.192;6.048;2023-07-13T03:23:28;1.50;;;1.40;;
6785;SDS011;3430;51.192;6.048;2023-07-13T03:26:04;3.30;;;1.80;;
6785;SDS011;3430;51.192;6.048;2023-07-13T03:28:30;2.73;;;1.20;;
6785;SDS011;3430;51.192;6.048;2023-07-13T03:31:15;2.13;;;1.43;;
6785;SDS011;3430;51.192;6.048;2023-07-13T03:33:42;1.70;;;1.60;;
6785;SDS011;3430;51.192;6.048;2023-07-13T03:36:10;3.03;;;1.50;;
6785;SDS011;3430;51.192;6.048;2023-07-13T03:38:36;1.50;;;1.40;;
6785;SDS011;3430;51.192;6.048;2023-07-13T03:41:02;2.10;;;1.53;;
6785;SDS011;3430;51.192;6.048;2023-07-13T03:43:27;3.57;;;1.50;;
6785;SDS011;3430;51.192;6.048;2023-07-13T03:45:53;1.47;;;1.30;;
6785;SDS011;3430;51.192;6.048;2023-07-13T03:48:18;2.83;;;1.50;;
6785;SDS011;3430;51.192;6.048;2023-07-13T03:50:44;2.20;;;1.20;;
6785;SDS011;3430;51.192;6.048;2023-07-13T03:53:09;2.13;;;1.43;;
6785;SDS011;3430;51.192;6.048;2023-07-13T03:55:35;1.30;;;1.20;;
6785;SDS011;3430;51.192;6.048;2023-07-13T03:58:22;2.70;;;1.70;;
6785;SDS011;3430;51.192;6.048;2023-07-13T04:00:45;2.87;;;1.50;;
6785;SDS011;3430;51.192;6.048;2023-07-13T04:03:11;2.77;;;1.37;;
6785;SDS011;3430;51.192;6.048;2023-07-13T04:05:36;2.40;;;1.50;;
6785;SDS011;3430;51.192;6.048;2023-07-13T04:08:02;2.60;;;1.53;;
6785;SDS011;3430;51.192;6.048;2023-07-13T04:10:27;2.30;;;1.63;;
6785;SDS011;3430;51.192;6.048;2023-07-13T04:12:53;1.53;;;1.43;;
6785;SDS011;3430;51.192;6.048;2023-07-13T04:15:19;3.00;;;1.53;;
6785;SDS011;3430;51.192;6.048;2023-07-13T04:17:44;1.60;;;1.50;;
6785;SDS011;3430;51.192;6.048;2023-07-13T04:20:10;4.37;;;1.47;;
6785;SDS011;3430;51.192;6.048;2023-07-13T04:22:36;2.90;;;1.70;;
6785;SDS011;3430;51.192;6.048;2023-07-13T04:25:01;1.90;;;1.43;;
6785;SDS011;3430;51.192;6.048;2023-07-13T04:27:27;4.57;;;1.50;;
6785;SDS011;3430;51.192;6.048;2023-07-13T04:29:54;1.83;;;1.30;;
6785;SDS011;3430;51.192;6.048;2023-07-13T04:32:20;1.43;;;1.30;;
6785;SDS011;3430;51.192;6.048;2023-07-13T04:34:45;3.37;;;1.30;;
6785;SDS011;3430;51.192;6.048;2023-07-13T04:37:12;2.07;;;1.50;;
6785;SDS011;3430;51.192;6.048;2023-07-13T04:39:37;5.33;;;1.70;;
6785;SDS011;3430;51.192;6.048;2023-07-13T04:42:03;2.30;;;1.70;;
6785;SDS011;3430;51.192;6.048;2023-07-13T04:44:29;2.87;;;1.57;;
6785;SDS011;3430;51.192;6.048;2023-07-13T04:46:55;3.33;;;1.87;;
6785;SDS011;3430;51.192;6.048;2023-07-13T04:49:22;1.67;;;1.43;;
6785;SDS011;3430;51.192;6.048;2023-07-13T04:51:47;4.97;;;1.63;;
6785;SDS011;3430;51.192;6.048;2023-07-13T04:54:14;2.87;;;1.73;;
6785;SDS011;3430;51.192;6.048;2023-07-13T04:56:39;1.80;;;1.53;;
6785;SDS011;3430;51.192;6.048;2023-07-13T04:59:06;1.67;;;1.40;;
6785;SDS011;3430;51.192;6.048;2023-07-13T05:01:32;2.43;;;1.63;;
6785;SDS011;3430;51.192;6.048;2023-07-13T05:03:58;2.30;;;1.73;;
6785;SDS011;3430;51.192;6.048;2023-07-13T05:06:25;1.73;;;1.43;;
6785;SDS011;3430;51.192;6.048;2023-07-13T05:08:50;3.67;;;1.60;;
6785;SDS011;3430;51.192;6.048;2023-07-13T05:11:17;1.97;;;1.50;;
6785;SDS011;3430;51.192;6.048;2023-07-13T05:13:43;4.43;;;1.60;;
6785;SDS011;3430;51.192;6.048;2023-07-13T05:16:09;4.17;;;1.67;;
6785;SDS011;3430;51.192;6.048;2023-07-13T05:18:34;4.33;;;1.80;;
6785;SDS011;3430;51.192;6.048;2023-07-13T05:21:10;3.53;;;1.60;;
6785;SDS011;3430;51.192;6.048;2023-07-13T05:23:35;3.57;;;2.00;;
6785;SDS011;3430;51.192;6.048;2023-07-13T05:26:02;4.23;;;1.80;;
6785;SDS011;3430;51.192;6.048;2023-07-13T05:28:27;6.73;;;1.77;;
6785;SDS011;3430;51.192;6.048;2023-07-13T05:30:53;5.20;;;1.73;;
6785;SDS011;3430;51.192;6.048;2023-07-13T05:33:19;8.60;;;1.70;;
6785;SDS011;3430;51.192;6.048;2023-07-13T05:35:45;2.70;;;1.60;;
6785;SDS011;3430;51.192;6.048;2023-07-13T05:38:10;4.43;;;2.00;;
6785;SDS011;3430;51.192;6.048;2023-07-13T05:40:35;2.93;;;1.77;;
6785;SDS011;3430;51.192;6.048;2023-07-13T05:43:00;3.27;;;1.77;;
6785;SDS011;3430;51.192;6.048;2023-07-13T05:45:26;3.37;;;1.87;;
6785;SDS011;3430;51.192;6.048;2023-07-13T05:47:52;3.33;;;1.70;;
6785;SDS011;3430;51.192;6.048;2023-07-13T05:50:17;3.33;;;1.70;;
6785;SDS011;3430;51.192;6.048;2023-07-13T05:52:42;2.73;;;1.87;;
6785;SDS011;3430;51.192;6.048;2023-07-13T05:55:08;5.53;;;1.87;;
6785;SDS011;3430;51.192;6.048;2023-07-13T05:57:33;7.17;;;2.33;;
6785;SDS011;3430;51.192;6.048;2023-07-13T05:59:59;3.03;;;2.00;;
6785;SDS011;3430;51.192;6.048;2023-07-13T06:02:24;5.13;;;1.93;;
6785;SDS011;3430;51.192;6.048;2023-07-13T06:04:50;5.00;;;2.07;;
6785;SDS011;3430;51.192;6.048;2023-07-13T06:07:16;7.33;;;2.13;;
6785;SDS011;3430;51.192;6.048;2023-07-13T06:09:41;4.63;;;1.83;;
6785;SDS011;3430;51.192;6.048;2023-07-13T06:12:07;4.30;;;2.00;;
6785;SDS011;3430;51.192;6.048;2023-07-13T06:14:32;5.77;;;2.23;;
6785;SDS011;3430;51.192;6.048;2023-07-13T06:16:57;5.20;;;1.90;;
6785;SDS011;3430;51.192;6.048;2023-07-13T06:19:23;2.47;;;1.90;;
6785;SDS011;3430;51.192;6.048;2023-07-13T06:21:48;4.03;;;1.83;;
6785;SDS011;3430;51.192;6.048;2023-07-13T06:24:13;5.07;;;1.87;;
6785;SDS011;3430;51.192;6.048;2023-07-13T06:26:38;5.20;;;2.13;;
6785;SDS011;3430;51.192;6.048;2023-07-13T06:29:04;4.03;;;2.17;;
6785;SDS011;3430;51.192;6.048;2023-07-13T06:31:30;6.30;;;1.80;;
6785;SDS011;3430;51.192;6.048;2023-07-13T06:33:55;3.47;;;1.80;;
6785;SDS011;3430;51.192;6.048;2023-07-13T06:36:20;4.27;;;2.10;;
6785;SDS011;3430;51.192;6.048;2023-07-13T06:38:45;3.47;;;1.80;;
6785;SDS011;3430;51.192;6.048;2023-07-13T06:41:11;3.77;;;2.20;;
6785;SDS011;3430;51.192;6.048;2023-07-13T06:43:36;6.27;;;2.10;;
6785;SDS011;3430;51.192;6.048;2023-07-13T06:46:01;4.53;;;2.07;;
6785;SDS011;3430;51.192;6.048;2023-07-13T06:48:27;3.93;;;2.83;;
6785;SDS011;3430;51.192;6.048;2023-07-13T06:50:52;8.17;;;2.40;;
6785;SDS011;3430;51.192;6.048;2023-07-13T06:53:19;6.50;;;2.30;;
6785;SDS011;3430;51.192;6.048;2023-07-13T06:55:44;2.60;;;1.77;;
6785;SDS011;3430;51.192;6.048;2023-07-13T06:58:10;4.97;;;1.87;;
6785;SDS011;3430;51.192;6.048;2023-07-13T07:00:36;3.63;;;2.03;;
6785;SDS011;3430;51.192;6.048;2023-07-13T07:03:01;5.40;;;2.07;;
6785;SDS011;3430;51.192;6.048;2023-07-13T07:05:26;8.67;;;2.10;;
6785;SDS011;3430;51.192;6.048;2023-07-13T07:07:52;6.03;;;2.23;;
6785;SDS011;3430;51.192;6.048;2023-07-13T07:10:18;5.63;;;2.30;;
6785;SDS011;3430;51.192;6.048;2023-07-13T07:12:43;2.53;;;1.63;;
6785;SDS011;3430;51.192;6.048;2023-07-13T07:15:09;3.07;;;1.80;;
6785;SDS011;3430;51.192;6.048;2023-07-13T07:17:34;5.27;;;2.07;;
6785;SDS011;3430;51.192;6.048;2023-07-13T07:19:59;3.37;;;2.03;;
6785;SDS011;3430;51.192;6.048;2023-07-13T07:22:25;3.47;;;2.20;;
6785;SDS011;3430;51.192;6.048;2023-07-13T07:24:53;3.33;;;1.80;;
6785;SDS011;3430;51.192;6.048;2023-07-13T07:27:19;4.20;;;2.30;;
6785;SDS011;3430;51.192;6.048;2023-07-13T07:29:44;6.33;;;2.30;;
6785;SDS011;3430;51.192;6.048;2023-07-13T07:32:09;6.33;;;1.90;;
6785;SDS011;3430;51.192;6.048;2023-07-13T07:34:35;5.67;;;2.77;;
6785;SDS011;3430;51.192;6.048;2023-07-13T07:37:00;7.07;;;2.10;;
6785;SDS011;3430;51.192;6.048;2023-07-13T07:39:26;3.83;;;2.00;;
6785;SDS011;3430;51.192;6.048;2023-07-13T07:41:52;3.40;;;2.23;;
6785;SDS011;3430;51.192;6.048;2023-07-13T07:44:18;4.93;;;2.23;;
6785;SDS011;3430;51.192;6.048;2023-07-13T07:46:43;4.27;;;2.20;;
6785;SDS011;3430;51.192;6.048;2023-07-13T07:49:12;4.07;;;2.07;;
6785;SDS011;3430;51.192;6.048;2023-07-13T07:51:37;4.37;;;2.33;;
6785;SDS011;3430;51.192;6.048;2023-07-13T07:54:08;7.90;;;4.63;;
6785;SDS011;3430;51.192;6.048;2023-07-13T07:56:34;7.83;;;2.87;;
6785;SDS011;3430;51.192;6.048;2023-07-13T07:59:00;6.30;;;2.50;;
6785;SDS011;3430;51.192;6.048;2023-07-13T08:01:28;6.57;;;2.40;;
6785;SDS011;3430;51.192;6.048;2023-07-13T08:03:54;4.00;;;2.30;;
6785;SDS011;3430;51.192;6.048;2023-07-13T08:06:20;4.83;;;2.10;;
6785;SDS011;3430;51.192;6.048;2023-07-13T08:08:47;3.27;;;2.03;;
6785;SDS011;3430;51.192;6.048;2023-07-13T08:11:12;15.17;;;2.40;;
6785;SDS011;3430;51.192;6.048;2023-07-13T08:13:38;4.13;;;2.23;;
6785;SDS011;3430;51.192;6.048;2023-07-13T08:16:04;4.87;;;2.40;;
6785;SDS011;3430;51.192;6.048;2023-07-13T08:18:32;9.17;;;3.07;;
6785;SDS011;3430;51.192;6.048;2023-07-13T08:20:58;8.93;;;2.60;;
6785;SDS011;3430;51.192;6.048;2023-07-13T08:23:24;7.97;;;2.63;;
6785;SDS011;3430;51.192;6.048;2023-07-13T08:25:52;5.33;;;2.53;;
6785;SDS011;3430;51.192;6.048;2023-07-13T08:28:21;6.57;;;2.20;;
6785;SDS011;3430;51.192;6.048;2023-07-13T08:30:47;6.67;;;2.20;;
6785;SDS011;3430;51.192;6.048;2023-07-13T08:33:16;7.03;;;2.30;;
6785;SDS011;3430;51.192;6.048;2023-07-13T08:35:45;5.47;;;2.27;;
6785;SDS011;3430;51.192;6.048;2023-07-13T08:38:10;5.43;;;2.30;;
6785;SDS011;3430;51.192;6.048;2023-07-13T08:40:36;4.23;;;2.20;;
6785;SDS011;3430;51.192;6.048;2023-07-13T08:43:02;4.93;;;2.47;;
6785;SDS011;3430;51.192;6.048;2023-07-13T08:45:46;3.53;;;2.10;;
6785;SDS011;3430;51.192;6.048;2023-07-13T08:48:19;9.77;;;2.50;;
6785;SDS011;3430;51.192;6.048;2023-07-13T08:50:51;7.43;;;2.40;;
6785;SDS011;3430;51.192;6.048;2023-07-13T08:53:20;7.13;;;2.20;;
6785;SDS011;3430;51.192;6.048;2023-07-13T08:55:49;4.87;;;2.57;;
6785;SDS011;3430;51.192;6.048;2023-07-13T08:58:18;3.90;;;2.57;;
6785;SDS011;3430;51.192;6.048;2023-07-13T09:03:59;5.43;;;2.13;;
6785;SDS011;3430;51.192;6.048;2023-07-13T09:06:30;4.17;;;2.27;;
6785;SDS011;3430;51.192;6.048;2023-07-13T09:09:06;3.83;;;2.63;;
6785;SDS011;3430;51.192;6.048;2023-07-13T09:14:02;7.57;;;2.50;;
6785;SDS011;3430;51.192;6.048;2023-07-13T09:16:32;5.23;;;2.20;;
6785;SDS011;3430;51.192;6.048;2023-07-13T09:18:59;5.43;;;2.03;;
6785;SDS011;3430;51.192;6.048;2023-07-13T09:21:31;4.07;;;2.33;;
6785;SDS011;3430;51.192;6.048;2023-07-13T09:26:46;8.23;;;2.40;;
6785;SDS011;3430;51.192;6.048;2023-07-13T09:29:24;3.33;;;1.90;;
6785;SDS011;3430;51.192;6.048;2023-07-13T09:31:55;3.23;;;2.03;;
6785;SDS011;3430;51.192;6.048;2023-07-13T09:34:23;3.23;;;1.90;;
6785;SDS011;3430;51.192;6.048;2023-07-13T09:36:49;7.73;;;2.37;;
6785;SDS011;3430;51.192;6.048;2023-07-13T09:39:24;5.77;;;2.70;;
6785;SDS011;3430;51.192;6.048;2023-07-13T09:44:30;4.97;;;1.90;;
6785;SDS011;3430;51.192;6.048;2023-07-13T09:46:56;4.70;;;2.20;;
6785;SDS011;3430;51.192;6.048;2023-07-13T09:49:26;6.40;;;2.23;;
6785;SDS011;3430;51.192;6.048;2023-07-13T09:52:03;3.73;;;2.40;;
6785;SDS011;3430;51.192;6.048;2023-07-13T09:54:29;3.53;;;2.30;;
6785;SDS011;3430;51.192;6.048;2023-07-13T09:56:55;4.13;;;2.70;;
6785;SDS011;3430;51.192;6.048;2023-07-13T09:59:22;5.27;;;2.10;;
6785;SDS011;3430;51.192;6.048;2023-07-13T10:01:49;3.17;;;2.43;;
6785;SDS011;3430;51.192;6.048;2023-07-13T10:04:16;4.90;;;2.17;;
6785;SDS011;3430;51.192;6.048;2023-07-13T10:06:44;2.67;;;2.00;;
6785;SDS011;3430;51.192;6.048;2023-07-13T10:09:10;3.60;;;2.20;;
6785;SDS011;3430;51.192;6.048;2023-07-13T10:11:36;5.40;;;2.10;;
6785;SDS011;3430;51.192;6.048;2023-07-13T10:14:07;5.97;;;2.30;;
6785;SDS011;3430;51.192;6.048;2023-07-13T10:16:35;8.73;;;2.03;;
6785;SDS011;3430;51.192;6.048;2023-07-13T10:21:35;7.03;;;1.97;;
6785;SDS011;3430;51.192;6.048;2023-07-13T10:24:18;2.20;;;2.00;;
6785;SDS011;3430;51.192;6.048;2023-07-13T10:27:18;5.50;;;2.20;;
6785;SDS011;3430;51.192;6.048;2023-07-13T10:29:37;5.37;;;2.57;;
6785;SDS011;3430;51.192;6.048;2023-07-13T10:32:08;5.73;;;2.27;;
6785;SDS011;3430;51.192;6.048;2023-07-13T10:34:34;3.60;;;2.13;;
6785;SDS011;3430;51.192;6.048;2023-07-13T10:37:02;4.90;;;1.90;;
6785;SDS011;3430;51.192;6.048;2023-07-13T10:39:30;3.60;;;2.00;;
6785;SDS011;3430;51.192;6.048;2023-07-13T10:41:58;2.33;;;1.80;;
6785;SDS011;3430;51.192;6.048;2023-07-13T10:44:28;3.00;;;2.07;;
6785;SDS011;3430;51.192;6.048;2023-07-13T10:46:58;3.43;;;2.20;;
6785;SDS011;3430;51.192;6.048;2023-07-13T10:49:24;4.87;;;2.17;;
6785;SDS011;3430;51.192;6.048;2023-07-13T10:51:52;2.40;;;1.90;;
6785;SDS011;3430;51.192;6.048;2023-07-13T10:54:22;3.70;;;1.93;;
6785;SDS011;3430;51.192;6.048;2023-07-13T10:56:55;2.93;;;1.97;;
6785;SDS011;3430;51.192;6.048;2023-07-13T10:59:31;3.13;;;1.93;;
6785;SDS011;3430;51.192;6.048;2023-07-13T11:01:58;3.87;;;2.10;;
6785;SDS011;3430;51.192;6.048;2023-07-13T11:04:29;5.13;;;2.20;;
6785;SDS011;3430;51.192;6.048;2023-07-13T11:06:59;2.53;;;1.80;;
6785;SDS011;3430;51.192;6.048;2023-07-13T11:11:56;3.50;;;1.90;;
6785;SDS011;3430;51.192;6.048;2023-07-13T11:16:57;2.33;;;1.90;;
6785;SDS011;3430;51.192;6.048;2023-07-13T11:27:40;3.47;;;2.00;;
6785;SDS011;3430;51.192;6.048;2023-07-13T11:38:30;3.07;;;1.80;;
6785;SDS011;3430;51.192;6.048;2023-07-13T11:40:56;3.10;;;1.60;;
6785;SDS011;3430;51.192;6.048;2023-07-13T11:43:23;3.23;;;1.70;;
6785;SDS011;3430;51.192;6.048;2023-07-13T11:45:49;3.40;;;2.10;;
6785;SDS011;3430;51.192;6.048;2023-07-13T11:48:18;2.57;;;1.60;;
6785;SDS011;3430;51.192;6.048;2023-07-13T11:50:59;2.13;;;1.83;;
6785;SDS011;3430;51.192;6.048;2023-07-13T11:53:29;4.13;;;1.90;;
6785;SDS011;3430;51.192;6.048;2023-07-13T11:55:55;3.87;;;2.07;;
6785;SDS011;3430;51.192;6.048;2023-07-13T11:58:23;2.97;;;2.17;;
6785;SDS011;3430;51.192;6.048;2023-07-13T12:00:49;2.37;;;1.80;;
6785;SDS011;3430;51.192;6.048;2023-07-13T12:03:15;2.13;;;1.70;;
6785;SDS011;3430;51.192;6.048;2023-07-13T12:06:01;5.20;;;2.00;;
6785;SDS011;3430;51.192;6.048;2023-07-13T12:08:27;1.70;;;1.57;;
6785;SDS011;3430;51.192;6.048;2023-07-13T12:10:59;3.53;;;1.60;;
6785;SDS011;3430;51.192;6.048;2023-07-13T12:13:26;2.77;;;1.80;;
6785;SDS011;3430;51.192;6.048;2023-07-13T12:15:51;3.10;;;1.70;;
6785;SDS011;3430;51.192;6.048;2023-07-13T12:18:20;3.93;;;1.50;;
6785;SDS011;3430;51.192;6.048;2023-07-13T12:20:46;5.53;;;2.13;;
6785;SDS011;3430;51.192;6.048;2023-07-13T12:23:20;1.87;;;1.57;;
6785;SDS011;3430;51.192;6.048;2023-07-13T12:25:47;4.10;;;1.73;;
6785;SDS011;3430;51.192;6.048;2023-07-13T12:28:28;2.50;;;1.90;;
6785;SDS011;3430;51.192;6.048;2023-07-13T12:30:59;1.87;;;1.67;;
6785;SDS011;3430;51.192;6.048;2023-07-13T12:33:29;2.27;;;1.60;;
6785;SDS011;3430;51.192;6.048;2023-07-13T12:35:56;1.90;;;1.60;;
6785;SDS011;3430;51.192;6.048;2023-07-13T12:38:24;4.13;;;1.93;;
6785;SDS011;3430;51.192;6.048;2023-07-13T12:40:50;1.77;;;1.63;;
6785;SDS011;3430;51.192;6.048;2023-07-13T12:43:16;2.33;;;1.77;;
6785;SDS011;3430;51.192;6.048;2023-07-13T12:45:56;2.27;;;1.70;;
6785;SDS011;3430;51.192;6.048;2023-07-13T12:48:21;2.53;;;1.73;;
6785;SDS011;3430;51.192;6.048;2023-07-13T12:50:48;4.00;;;1.90;;
6785;SDS011;3430;51.192;6.048;2023-07-13T12:53:17;2.47;;;1.63;;
6785;SDS011;3430;51.192;6.048;2023-07-13T12:55:46;3.33;;;1.77;;
6785;SDS011;3430;51.192;6.048;2023-07-13T12:58:16;2.73;;;1.50;;
6785;SDS011;3430;51.192;6.048;2023-07-13T13:00:47;8.03;;;2.10;;
6785;SDS011;3430;51.192;6.048;2023-07-13T13:03:21;3.87;;;1.73;;
6785;SDS011;3430;51.192;6.048;2023-07-13T13:05:47;2.03;;;1.80;;
6785;SDS011;3430;51.192;6.048;2023-07-13T13:08:12;4.80;;;1.87;;
6785;SDS011;3430;51.192;6.048;2023-07-13T13:10:38;2.77;;;1.90;;
6785;SDS011;3430;51.192;6.048;2023-07-13T13:13:04;3.40;;;1.70;;
6785;SDS011;3430;51.192;6.048;2023-07-13T13:15:29;3.30;;;1.90;;
6785;SDS011;3430;51.192;6.048;2023-07-13T13:17:55;2.30;;;2.00;;
6785;SDS011;3430;51.192;6.048;2023-07-13T13:20:24;2.80;;;1.87;;
6785;SDS011;3430;51.192;6.048;2023-07-13T13:22:51;4.03;;;1.73;;
6785;SDS011;3430;51.192;6.048;2023-07-13T13:25:16;3.70;;;1.83;;
6785;SDS011;3430;51.192;6.048;2023-07-13T13:27:42;2.97;;;1.67;;
6785;SDS011;3430;51.192;6.048;2023-07-13T13:30:11;1.70;;;1.50;;
6785;SDS011;3430;51.192;6.048;2023-07-13T13:32:39;2.63;;;1.67;;
6785;SDS011;3430;51.192;6.048;2023-07-13T13:35:05;5.50;;;2.00;;
6785;SDS011;3430;51.192;6.048;2023-07-13T13:37:31;1.93;;;1.40;;
6785;SDS011;3430;51.192;6.048;2023-07-13T13:39:57;2.03;;;1.60;;
6785;SDS011;3430;51.192;6.048;2023-07-13T13:42:22;1.77;;;1.63;;
6785;SDS011;3430;51.192;6.048;2023-07-13T13:44:50;4.80;;;2.37;;
6785;SDS011;3430;51.192;6.048;2023-07-13T13:47:26;1.93;;;1.73;;
6785;SDS011;3430;51.192;6.048;2023-07-13T13:49:53;2.77;;;1.83;;
6785;SDS011;3430;51.192;6.048;2023-07-13T13:52:18;2.40;;;1.67;;
6785;SDS011;3430;51.192;6.048;2023-07-13T13:54:44;1.87;;;1.67;;
6785;SDS011;3430;51.192;6.048;2023-07-13T13:57:09;3.33;;;1.90;;
6785;SDS011;3430;51.192;6.048;2023-07-13T13:59:37;2.20;;;1.73;;
6785;SDS011;3430;51.192;6.048;2023-07-13T14:02:13;7.67;;;2.37;;
6785;SDS011;3430;51.192;6.048;2023-07-13T14:04:45;2.80;;;1.63;;
6785;SDS011;3430;51.192;6.048;2023-07-13T14:07:11;3.87;;;1.73;;
6785;SDS011;3430;51.192;6.048;2023-07-13T14:09:36;2.53;;;1.70;;
6785;SDS011;3430;51.192;6.048;2023-07-13T14:12:03;2.27;;;1.67;;
6785;SDS011;3430;51.192;6.048;2023-07-13T14:14:29;3.23;;;1.67;;
6785;SDS011;3430;51.192;6.048;2023-07-13T14:16:55;2.03;;;1.80;;
6785;SDS011;3430;51.192;6.048;2023-07-13T14:19:21;4.07;;;1.70;;
6785;SDS011;3430;51.192;6.048;2023-07-13T14:21:47;3.10;;;1.97;;
6785;SDS011;3430;51.192;6.048;2023-07-13T14:24:14;4.20;;;1.80;;
6785;SDS011;3430;51.192;6.048;2023-07-13T14:26:40;2.23;;;1.80;;
6785;SDS011;3430;51.192;6.048;2023-07-13T14:29:16;2.53;;;2.23;;
6785;SDS011;3430;51.192;6.048;2023-07-13T14:31:42;3.10;;;2.33;;
6785;SDS011;3430;51.192;6.048;2023-07-13T14:34:09;3.03;;;1.90;;
6785;SDS011;3430;51.192;6.048;2023-07-13T14:36:38;2.53;;;2.07;;
6785;SDS011;3430;51.192;6.048;2023-07-13T14:39:14;3.33;;;1.97;;
6785;SDS011;3430;51.192;6.048;2023-07-13T14:41:40;3.10;;;2.33;;
6785;SDS011;3430;51.192;6.048;2023-07-13T14:44:16;2.57;;;2.10;;
6785;SDS011;3430;51.192;6.048;2023-07-13T14:46:42;3.40;;;1.63;;
6785;SDS011;3430;51.192;6.048;2023-07-13T14:51:42;2.63;;;2.17;;
6785;SDS011;3430;51.192;6.048;2023-07-13T14:54:08;2.40;;;2.20;;
6785;SDS011;3430;51.192;6.048;2023-07-13T14:56:34;3.30;;;2.30;;
6785;SDS011;3430;51.192;6.048;2023-07-13T14:59:00;3.17;;;2.23;;
6785;SDS011;3430;51.192;6.048;2023-07-13T15:01:25;2.23;;;2.00;;
6785;SDS011;3430;51.192;6.048;2023-07-13T15:03:52;3.13;;;1.90;;
6785;SDS011;3430;51.192;6.048;2023-07-13T15:06:17;3.47;;;2.27;;
6785;SDS011;3430;51.192;6.048;2023-07-13T15:08:44;5.33;;;2.50;;
6785;SDS011;3430;51.192;6.048;2023-07-13T15:11:09;3.47;;;2.17;;
6785;SDS011;3430;51.192;6.048;2023-07-13T15:13:38;3.33;;;2.00;;
6785;SDS011;3430;51.192;6.048;2023-07-13T15:16:04;3.63;;;2.20;;
6785;SDS011;3430;51.192;6.048;2023-07-13T15:18:30;2.77;;;2.27;;
6785;SDS011;3430;51.192;6.048;2023-07-13T15:20:56;2.07;;;1.90;;
6785;SDS011;3430;51.192;6.048;2023-07-13T15:23:25;2.87;;;1.90;;
6785;SDS011;3430;51.192;6.048;2023-07-13T15:25:51;5.23;;;2.20;;
6785;SDS011;3430;51.192;6.048;2023-07-13T15:28:17;3.83;;;2.43;;
6785;SDS011;3430;51.192;6.048;2023-07-13T15:30:46;3.13;;;2.10;;
6785;SDS011;3430;51.192;6.048;2023-07-13T15:33:14;2.47;;;2.07;;
6785;SDS011;3430;51.192;6.048;2023-07-13T15:35:42;3.23;;;2.00;;
6785;SDS011;3430;51.192;6.048;2023-07-13T15:38:19;1.93;;;1.77;;
6785;SDS011;3430;51.192;6.048;2023-07-13T15:40:46;3.10;;;2.07;;
6785;SDS011;3430;51.192;6.048;2023-07-13T15:43:12;4.87;;;2.10;;
6785;SDS011;3430;51.192;6.048;2023-07-13T15:45:39;2.63;;;1.93;;
6785;SDS011;3430;51.192;6.048;2023-07-13T15:48:17;3.73;;;2.20;;
6785;SDS011;3430;51.192;6.048;2023-07-13T15:50:47;3.43;;;2.07;;
6785;SDS011;3430;51.192;6.048;2023-07-13T15:53:13;1.63;;;1.53;;
6785;SDS011;3430;51.192;6.048;2023-07-13T15:55:43;1.80;;;1.70;;